createdAt,value
2023-01-03T00:00:59.917Z,21.30
2023-01-03T00:03:32.440Z,27.10
2023-01-03T00:06:06.585Z,21.40
2023-01-03T00:08:39.878Z,24.90
2023-01-03T00:11:17.151Z,23.60
2023-01-03T00:13:50.163Z,24.80
2023-01-03T00:16:23.474Z,25.50
2023-01-03T00:18:55.999Z,25.80
2023-01-03T00:21:28.531Z,27.60
2023-01-03T00:24:02.000Z,22.90
2023-01-03T00:26:34.933Z,23.60
2023-01-03T00:29:08.431Z,28.30
2023-01-03T00:34:13.203Z,27.30
2023-01-03T00:36:46.601Z,27.80
2023-01-03T00:39:19.372Z,27.20
2023-01-03T00:41:52.773Z,28.40
2023-01-03T00:44:27.873Z,28.60
2023-01-03T00:47:01.775Z,26.10
2023-01-03T00:49:34.350Z,27.80
2023-01-03T00:52:07.123Z,28.50
2023-01-03T00:54:40.010Z,28.80
2023-01-03T00:57:13.104Z,27.60
2023-01-03T00:59:45.852Z,26.30
2023-01-03T01:02:20.785Z,25.90
2023-01-03T01:04:55.393Z,25.60
2023-01-03T01:07:28.305Z,23.10
2023-01-03T01:10:01.489Z,23.20
2023-01-03T01:12:34.461Z,22.20
2023-01-03T01:15:09.405Z,22.30
2023-01-03T01:17:42.657Z,23.20
2023-01-03T01:20:17.997Z,24.20
2023-01-03T01:22:51.784Z,23.20
2023-01-03T01:25:24.493Z,22.40
2023-01-03T01:27:58.698Z,15.80
2023-01-03T01:30:33.544Z,24.50
2023-01-03T01:33:06.055Z,24.10
2023-01-03T01:35:38.610Z,25.40
2023-01-03T01:38:13.361Z,23.70
2023-01-03T01:40:46.464Z,22.70
2023-01-03T01:46:21.521Z,22.70
2023-01-03T01:48:59.782Z,23.20
2023-01-03T01:51:39.230Z,26.50
2023-01-03T01:54:12.683Z,26.60
2023-01-03T01:56:48.990Z,25.10
2023-01-03T01:59:21.845Z,24.70
2023-01-03T05:43:35.118Z,28.20
2023-01-03T05:48:59.886Z,24.80
2023-01-03T05:51:32.546Z,28.00
2023-01-03T05:54:08.857Z,29.20
2023-01-03T06:00:14.161Z,25.40
2023-01-03T06:03:09.044Z,24.70
2023-01-03T06:08:29.595Z,24.10
2023-01-03T06:11:06.715Z,22.30
2023-01-03T06:13:44.138Z,25.10
2023-01-03T06:16:52.837Z,19.80
2023-01-03T06:19:35.160Z,20.10
2023-01-03T06:24:59.824Z,19.80
2023-01-03T06:27:33.683Z,19.50
2023-01-03T06:30:07.677Z,20.40
2023-01-03T06:36:09.457Z,17.20
2023-01-03T06:39:02.117Z,21.20
2023-01-03T06:44:31.581Z,21.60
2023-01-03T06:47:23.315Z,24.00
2023-01-03T06:50:21.816Z,24.00
2023-01-03T06:53:12.486Z,19.10
2023-01-03T06:55:56.144Z,21.80
2023-01-03T06:58:37.980Z,19.20
2023-01-03T07:04:00.701Z,17.90
2023-01-03T07:06:33.345Z,19.60
2023-01-03T07:09:09.605Z,19.20
2023-01-03T07:14:31.554Z,20.00
2023-01-03T07:17:05.136Z,20.70
2023-01-03T07:19:38.235Z,21.90
2023-01-03T07:25:02.877Z,24.10
2023-01-03T07:27:35.761Z,21.00
2023-01-03T07:30:13.826Z,22.40
2023-01-03T07:33:10.452Z,22.40
2023-01-03T07:38:30.367Z,22.90
2023-01-03T07:41:04.986Z,20.10
2023-01-03T07:43:41.567Z,22.70
2023-01-03T07:46:36.136Z,18.10
2023-01-03T07:52:05.324Z,16.40
2023-01-03T07:54:51.207Z,18.70
2023-01-03T07:57:23.965Z,13.80
2023-01-03T08:00:04.403Z,13.70
2023-01-03T08:03:10.621Z,11.30
2023-01-03T08:06:03.219Z,9.60
2023-01-03T08:12:38.971Z,10.90
2023-01-03T08:15:10.335Z,9.50
2023-01-03T08:20:28.705Z,10.00
2023-01-03T08:23:00.692Z,10.40
2023-01-03T08:25:33.922Z,9.40
2023-01-03T08:31:02.986Z,12.90
2023-01-03T08:33:39.133Z,10.40
2023-01-03T08:36:10.475Z,9.40
2023-01-03T08:42:08.050Z,7.70
2023-01-03T08:47:32.458Z,8.40
2023-01-03T08:50:02.968Z,7.40
2023-01-03T08:52:35.519Z,9.10
2023-01-03T08:57:59.685Z,10.30
2023-01-03T09:00:30.215Z,11.80
2023-01-03T09:03:05.085Z,10.20
2023-01-03T09:05:35.386Z,10.90
2023-01-03T09:08:05.662Z,12.90
2023-01-03T09:10:39.670Z,12.50
2023-01-03T09:13:32.748Z,12.20
2023-01-03T09:16:03.577Z,12.10
2023-01-03T09:18:34.586Z,14.20
2023-01-03T09:21:07.665Z,13.10
2023-01-03T09:26:29.708Z,16.20
2023-01-03T09:29:00.353Z,17.10
2023-01-03T09:31:40.334Z,12.30
2023-01-03T09:34:32.052Z,12.20
2023-01-03T09:37:04.063Z,11.80
2023-01-03T09:39:34.656Z,12.00
2023-01-03T09:42:25.724Z,13.70
2023-01-03T09:45:05.747Z,9.80
2023-01-03T09:50:50.724Z,10.40
2023-01-03T10:09:26.046Z,8.80
2023-01-03T10:12:17.716Z,8.30
2023-01-03T10:15:15.587Z,6.90
2023-01-03T10:18:11.664Z,7.90
2023-01-03T10:21:12.415Z,6.60
2023-01-03T10:24:18.430Z,6.70
2023-01-03T10:27:14.467Z,4.30
2023-01-03T10:30:07.411Z,5.30
2023-01-03T10:35:31.113Z,8.50
2023-01-03T10:38:01.465Z,6.50
2023-01-03T10:40:37.700Z,7.20
2023-01-03T10:46:01.831Z,5.30
2023-01-03T10:49:17.124Z,5.50
2023-01-03T10:51:40.261Z,5.80
2023-01-03T10:54:22.115Z,5.40
2023-01-03T10:57:29.001Z,5.40
2023-01-03T11:00:21.032Z,3.50
2023-01-03T11:03:16.819Z,4.00
2023-01-03T11:06:14.605Z,5.80
2023-01-03T11:09:11.154Z,4.70
2023-01-03T11:12:13.061Z,5.70
2023-01-03T11:15:17.273Z,4.40
2023-01-03T11:18:05.475Z,3.40
2023-01-03T11:24:16.753Z,3.80
2023-01-03T11:27:12.662Z,4.10
2023-01-03T11:30:17.728Z,4.20
2023-01-03T11:33:29.543Z,5.90
2023-01-03T11:36:22.244Z,4.50
2023-01-03T11:39:27.218Z,14.10
2023-01-03T11:42:23.384Z,10.90
2023-01-03T11:45:40.692Z,5.70
2023-01-03T11:48:33.226Z,7.70
2023-01-03T11:51:14.782Z,8.00
2023-01-03T11:54:10.044Z,13.50
2023-01-03T13:36:16.416Z,4.50
2023-01-03T13:38:46.406Z,5.80
2023-01-03T13:41:33.018Z,5.90
2023-01-03T13:44:16.497Z,5.10
2023-01-03T13:46:47.302Z,9.40
2023-01-03T13:49:20.894Z,5.10
2023-01-03T13:51:53.686Z,6.10
2023-01-03T13:54:42.106Z,5.50
2023-01-03T13:57:30.649Z,6.80
2023-01-03T14:00:03.526Z,6.40
2023-01-03T14:03:13.491Z,3.80
2023-01-03T14:06:19.066Z,4.70
2023-01-03T14:09:19.186Z,4.10
2023-01-03T14:12:07.099Z,5.10
2023-01-03T14:14:40.266Z,6.60
2023-01-03T14:17:18.746Z,5.60
2023-01-03T14:19:52.476Z,7.30
2023-01-03T14:22:31.477Z,7.30
2023-01-03T14:25:02.189Z,9.90
2023-01-03T14:27:39.166Z,12.70
2023-01-03T14:30:24.287Z,13.70
2023-01-03T14:32:54.963Z,11.40
2023-01-03T14:35:36.061Z,9.90
2023-01-03T14:38:07.450Z,9.40
2023-01-03T14:40:40.626Z,7.70
2023-01-03T14:43:21.014Z,7.10
2023-01-03T14:45:55.712Z,10.60
2023-01-03T14:48:25.978Z,8.50
2023-01-03T14:50:56.672Z,10.60
2023-01-03T14:53:27.394Z,22.10
2023-01-03T14:55:58.623Z,16.30
2023-01-03T14:58:40.571Z,10.40
2023-01-03T15:01:14.376Z,9.70
2023-01-03T15:03:46.753Z,8.70
2023-01-03T15:06:23.869Z,8.20
2023-01-03T15:08:56.120Z,9.70
2023-01-03T15:11:33.494Z,7.20
2023-01-03T15:14:06.112Z,7.00
2023-01-03T15:16:38.346Z,7.30
2023-01-03T15:19:15.512Z,8.40
2023-01-03T15:21:54.895Z,6.50
2023-01-03T15:24:25.432Z,5.60
2023-01-03T15:26:56.102Z,5.10
2023-01-03T15:29:28.714Z,6.10
2023-01-03T15:32:00.920Z,5.10
2023-01-03T15:34:41.840Z,5.80
2023-01-03T15:37:17.381Z,8.90
2023-01-03T15:39:49.884Z,8.50
2023-01-03T15:42:46.858Z,16.50
2023-01-03T15:45:25.696Z,23.80
2023-01-03T15:48:07.074Z,14.70
2023-01-03T15:50:53.527Z,21.00
2023-01-03T15:53:28.715Z,23.50
2023-01-03T15:56:03.005Z,21.20
2023-01-03T15:58:39.659Z,20.90
2023-01-03T16:01:10.668Z,31.60
2023-01-03T16:03:44.212Z,25.60
2023-01-03T16:06:14.277Z,50.20
2023-01-03T16:08:44.712Z,47.30
2023-01-03T16:11:20.846Z,37.20
2023-01-03T16:13:55.633Z,25.70
2023-01-03T16:16:28.815Z,46.90
2023-01-03T16:18:59.458Z,42.20
2023-01-03T16:21:30.613Z,80.70
2023-01-03T16:24:02.533Z,58.30
2023-01-03T16:26:36.557Z,48.80
2023-01-03T16:29:06.653Z,36.90
2023-01-03T16:31:37.463Z,57.60
2023-01-03T16:34:15.251Z,33.80
2023-01-03T16:36:47.360Z,25.90
2023-01-03T16:39:19.811Z,33.20
2023-01-03T16:42:05.949Z,25.80
2023-01-03T16:44:38.454Z,36.70
2023-01-03T16:47:14.648Z,32.20
2023-01-03T16:49:49.756Z,27.80
2023-01-03T16:52:25.096Z,31.10
2023-01-03T16:54:56.807Z,33.40
2023-01-03T16:57:28.145Z,34.40
2023-01-03T16:59:58.676Z,52.80
2023-01-03T17:02:29.438Z,45.30
2023-01-03T17:04:59.651Z,52.30
2023-01-03T17:07:29.886Z,29.70
2023-01-03T17:10:00.197Z,29.60
2023-01-03T17:12:30.276Z,44.40
2023-01-03T17:15:00.376Z,50.00
2023-01-03T17:17:30.662Z,56.60
2023-01-03T17:20:04.269Z,35.20
2023-01-03T17:22:35.938Z,29.40
2023-01-03T17:25:06.903Z,24.90
2023-01-03T17:27:37.168Z,45.10
2023-01-03T17:30:09.315Z,29.80
2023-01-03T17:32:39.840Z,21.40
2023-01-03T17:35:14.113Z,21.90
2023-01-03T17:38:23.300Z,23.70
2023-01-03T17:40:37.366Z,18.90
2023-01-03T17:43:07.688Z,21.10
2023-01-03T17:45:55.128Z,22.00
2023-01-03T17:48:42.906Z,25.60
2023-01-03T17:51:13.250Z,39.10
2023-01-03T17:53:44.253Z,73.80
2023-01-03T17:56:17.104Z,29.10
2023-01-03T17:58:55.846Z,30.50
2023-01-03T18:01:26.370Z,42.60
2023-01-03T18:03:56.802Z,80.70
2023-01-03T18:06:27.485Z,81.30
2023-01-03T18:08:57.583Z,86.50
2023-01-03T18:11:28.498Z,88.60
2023-01-03T18:13:58.742Z,91.00
2023-01-03T18:16:29.182Z,77.30
2023-01-03T18:18:59.474Z,68.50
2023-01-03T18:21:29.530Z,56.00
2023-01-03T18:24:02.047Z,43.30
2023-01-03T18:26:36.527Z,54.50
2023-01-03T18:29:07.948Z,72.00
2023-01-03T18:31:38.029Z,61.70
2023-01-03T18:34:09.309Z,49.20
2023-01-03T18:36:42.154Z,41.20
2023-01-03T18:39:16.325Z,42.20
2023-01-03T18:41:46.340Z,60.40
2023-01-03T18:44:22.826Z,55.60
2023-01-03T18:46:53.149Z,36.00
2023-01-03T18:49:23.305Z,44.90
2023-01-03T18:51:54.915Z,59.40
2023-01-03T18:54:25.395Z,49.80
2023-01-03T18:56:55.273Z,37.10
2023-01-03T18:59:27.707Z,40.30
2023-01-03T19:01:57.917Z,34.90
2023-01-03T19:04:28.127Z,42.80
2023-01-03T19:06:58.341Z,46.40
2023-01-03T19:09:29.060Z,35.20
2023-01-03T19:11:59.356Z,44.60
2023-01-03T19:14:29.306Z,53.80
2023-01-03T19:16:59.384Z,68.60
2023-01-03T19:19:32.743Z,53.20
2023-01-03T19:22:07.656Z,28.90
2023-01-03T19:24:40.991Z,35.40
2023-01-03T19:27:16.165Z,38.00
2023-01-03T19:29:56.855Z,39.80
2023-01-03T19:32:32.821Z,44.90
2023-01-03T19:35:14.589Z,36.20
2023-01-03T19:37:46.164Z,50.70
2023-01-03T19:40:18.785Z,39.30
2023-01-03T19:42:57.649Z,29.50
2023-01-03T19:45:38.384Z,42.80
2023-01-03T19:48:20.615Z,43.10
2023-01-03T19:50:59.672Z,44.60
2023-01-03T19:53:31.992Z,43.00
2023-01-03T19:56:05.656Z,41.00
2023-01-03T19:58:40.935Z,38.50
2023-01-03T20:01:15.069Z,51.10
2023-01-03T20:03:47.700Z,47.90
2023-01-03T20:06:20.438Z,49.20
2023-01-03T20:08:51.645Z,38.90
2023-01-03T20:11:24.452Z,39.10
2023-01-03T20:13:55.224Z,42.30
2023-01-03T20:16:28.299Z,63.00
2023-01-03T20:18:58.657Z,60.50
2023-01-03T20:21:33.260Z,50.20
2023-01-03T20:24:07.447Z,34.40
2023-01-03T20:26:39.349Z,29.80
2023-01-03T20:29:11.882Z,31.90
2023-01-03T20:31:42.510Z,31.30
2023-01-03T20:34:13.884Z,47.30
2023-01-03T20:36:48.935Z,40.80
2023-01-03T20:39:28.835Z,34.70
2023-01-03T20:42:03.560Z,31.80
2023-01-03T20:44:34.174Z,35.20
2023-01-03T20:47:06.174Z,37.50
2023-01-03T20:49:40.176Z,43.80
2023-01-03T20:52:17.496Z,42.10
2023-01-03T20:54:47.991Z,42.10
2023-01-03T20:57:20.995Z,46.80
2023-01-03T20:59:51.930Z,44.60
2023-01-03T21:02:22.432Z,42.10
2023-01-03T21:04:52.605Z,42.00
2023-01-03T21:07:49.809Z,45.80
2023-01-03T21:10:24.363Z,47.70
2023-01-03T21:12:54.355Z,41.90
2023-01-03T21:15:27.284Z,43.00
2023-01-03T21:17:57.596Z,45.90
2023-01-03T21:20:29.258Z,47.00
2023-01-03T21:22:59.970Z,44.80
2023-01-03T21:25:32.661Z,45.50
2023-01-03T21:28:03.785Z,49.10
2023-01-03T21:30:34.076Z,60.70
2023-01-03T21:33:04.760Z,63.80
2023-01-03T21:35:41.011Z,50.90
2023-01-03T21:38:12.572Z,49.40
2023-01-03T21:40:42.912Z,56.60
2023-01-03T21:43:13.307Z,53.30
2023-01-03T21:45:46.808Z,73.10
2023-01-03T21:48:18.938Z,58.30
2023-01-03T21:50:52.756Z,44.40
2023-01-03T21:53:23.703Z,40.40
2023-01-03T21:55:53.795Z,28.90
2023-01-03T21:58:24.476Z,35.70
2023-01-03T22:00:54.573Z,43.50
2023-01-03T22:03:42.313Z,38.80
2023-01-03T22:06:14.306Z,31.30
2023-01-03T22:08:44.209Z,46.30
2023-01-03T22:11:14.521Z,52.60
2023-01-03T22:13:44.867Z,52.60
2023-01-03T22:16:15.035Z,50.50
2023-01-03T22:18:45.514Z,42.70
2023-01-03T22:21:15.786Z,32.70
2023-01-03T22:23:45.890Z,35.60
2023-01-03T22:26:16.642Z,39.70
2023-01-03T22:28:47.544Z,37.50
2023-01-03T22:31:19.422Z,37.00
2023-01-03T22:33:50.412Z,38.80
2023-01-03T22:36:20.347Z,35.30
2023-01-03T22:38:52.578Z,36.60
2023-01-03T22:41:22.719Z,36.60
2023-01-03T22:43:54.132Z,33.80
2023-01-03T22:46:24.068Z,39.60
2023-01-03T22:48:55.417Z,47.10
2023-01-03T22:51:25.503Z,42.90
2023-01-03T22:53:56.787Z,37.40
2023-01-03T22:58:57.906Z,36.50
2023-01-03T23:01:29.032Z,37.40
2023-01-03T23:04:04.007Z,38.20
2023-01-03T23:06:35.440Z,38.50
2023-01-03T23:09:09.016Z,44.30
2023-01-03T23:11:56.755Z,41.00
2023-01-03T23:14:27.884Z,39.00
2023-01-03T23:16:57.933Z,41.90
2023-01-03T23:19:28.546Z,42.40
2023-01-03T23:21:58.470Z,45.00
2023-01-03T23:24:28.554Z,36.90
2023-01-03T23:26:58.516Z,38.30
2023-01-03T23:29:28.686Z,37.80
2023-01-03T23:31:58.524Z,40.50
2023-01-03T23:34:28.507Z,44.90
2023-01-03T23:36:58.580Z,45.90
2023-01-03T23:39:29.263Z,41.10
2023-01-03T23:41:59.551Z,42.20
2023-01-03T23:44:30.164Z,47.90
2023-01-03T23:47:00.110Z,58.10
2023-01-03T23:49:30.137Z,64.00
2023-01-03T23:52:00.176Z,60.40
2023-01-03T23:54:30.244Z,53.60
2023-01-03T23:57:03.094Z,47.00
2023-01-03T23:59:33.018Z,44.70
